sensor_id;sensor_type;location;lat;lon;timestamp;pressure;altitude;pressure_sealevel;temperature;humidity
9235;BME280;4652;42.716;23.218;2022-11-20T00:06:15;94037.63;;;17.55;100.00
9235;BME280;4652;42.716;23.218;2022-11-20T00:12:58;94033.75;;;17.56;100.00
9235;BME280;4652;42.716;23.218;2022-11-20T00:19:40;94029.69;;;17.50;100.00
9235;BME280;4652;42.716;23.218;2022-11-20T00:26:25;93975.25;;;17.03;100.00
9235;BME280;4652;42.716;23.218;2022-11-20T00:33:07;94021.50;;;17.35;100.00
9235;BME280;4652;42.716;23.218;2022-11-20T00:39:49;94011.16;;;17.25;100.00
9235;BME280;4652;42.716;23.218;2022-11-20T00:46:32;94044.34;;;17.30;100.00
9235;BME280;4652;42.716;23.218;2022-11-20T00:53:14;94061.47;;;17.31;100.00
9235;BME280;4652;42.716;23.218;2022-11-20T00:59:56;94038.19;;;17.18;100.00
9235;BME280;4652;42.716;23.218;2022-11-20T01:06:40;94020.72;;;17.03;100.00
9235;BME280;4652;42.716;23.218;2022-11-20T01:13:22;94018.44;;;17.21;100.00
9235;BME280;4652;42.716;23.218;2022-11-20T01:20:21;94008.72;;;17.20;100.00
9235;BME280;4652;42.716;23.218;2022-11-20T01:27:05;94003.44;;;17.11;100.00
9235;BME280;4652;42.716;23.218;2022-11-20T01:33:48;93995.00;;;17.32;100.00
9235;BME280;4652;42.716;23.218;2022-11-20T01:40:30;93984.56;;;17.34;100.00
9235;BME280;4652;42.716;23.218;2022-11-20T01:47:16;93981.22;;;17.25;100.00
9235;BME280;4652;42.716;23.218;2022-11-20T01:54:03;94021.78;;;17.30;100.00
9235;BME280;4652;42.716;23.218;2022-11-20T05:04:17;93991.03;;;16.15;100.00
9235;BME280;4652;42.716;23.218;2022-11-20T08:24:18;94174.84;;;17.82;100.00
9235;BME280;4652;42.716;23.218;2022-11-20T08:31:02;94186.94;;;17.14;100.00
9235;BME280;4652;42.716;23.218;2022-11-20T08:37:46;94184.00;;;16.42;100.00
9235;BME280;4652;42.716;23.218;2022-11-20T08:44:30;94196.34;;;16.04;100.00
9235;BME280;4652;42.716;23.218;2022-11-20T08:51:12;94185.47;;;15.47;100.00
9235;BME280;4652;42.716;23.218;2022-11-20T08:57:55;94228.88;;;15.47;100.00
9235;BME280;4652;42.716;23.218;2022-11-20T09:04:39;94237.59;;;15.52;100.00
9235;BME280;4652;42.716;23.218;2022-11-20T09:11:21;94236.81;;;15.31;100.00
9235;BME280;4652;42.716;23.218;2022-11-20T09:18:04;94270.06;;;15.49;100.00
9235;BME280;4652;42.716;23.218;2022-11-20T09:24:48;94219.13;;;15.13;100.00
9235;BME280;4652;42.716;23.218;2022-11-20T09:31:30;94237.00;;;15.47;100.00
9235;BME280;4652;42.716;23.218;2022-11-20T09:38:12;94210.75;;;15.71;100.00
9235;BME280;4652;42.716;23.218;2022-11-20T09:45:12;94187.97;;;16.33;100.00
9235;BME280;4652;42.716;23.218;2022-11-20T09:51:58;94161.03;;;16.40;100.00
9235;BME280;4652;42.716;23.218;2022-11-20T09:58:42;94165.06;;;16.46;100.00
9235;BME280;4652;42.716;23.218;2022-11-20T10:05:31;94141.09;;;17.00;100.00
9235;BME280;4652;42.716;23.218;2022-11-20T10:12:22;94143.97;;;17.35;100.00
9235;BME280;4652;42.716;23.218;2022-11-20T10:19:18;94147.56;;;17.23;100.00
9235;BME280;4652;42.716;23.218;2022-11-20T10:26:16;94178.63;;;16.94;100.00
9235;BME280;4652;42.716;23.218;2022-11-20T10:33:03;94189.31;;;16.27;100.00
9235;BME280;4652;42.716;23.218;2022-11-20T10:39:50;94165.84;;;15.41;100.00
9235;BME280;4652;42.716;23.218;2022-11-20T10:46:43;94180.81;;;14.73;100.00
9235;BME280;4652;42.716;23.218;2022-11-20T10:53:42;94206.50;;;13.71;100.00
9235;BME280;4652;42.716;23.218;2022-11-20T11:00:25;94239.53;;;13.21;100.00
9235;BME280;4652;42.716;23.218;2022-11-20T11:19:35;94189.75;;;12.71;100.00
9235;BME280;4652;42.716;23.218;2022-11-20T11:26:20;94185.47;;;12.61;100.00
9235;BME280;4652;42.716;23.218;2022-11-20T11:33:04;94178.78;;;12.76;100.00
9235;BME280;4652;42.716;23.218;2022-11-20T11:39:49;94211.69;;;12.78;100.00
9235;BME280;4652;42.716;23.218;2022-11-20T11:46:33;94178.47;;;12.94;100.00
9235;BME280;4652;42.716;23.218;2022-11-20T11:53:18;94174.81;;;13.25;100.00
9235;BME280;4652;42.716;23.218;2022-11-20T12:00:06;94187.06;;;13.22;100.00
9235;BME280;4652;42.716;23.218;2022-11-20T12:06:53;94173.69;;;13.26;100.00
9235;BME280;4652;42.716;23.218;2022-11-20T12:13:44;94215.66;;;13.40;100.00
9235;BME280;4652;42.716;23.218;2022-11-20T12:20:34;94211.84;;;13.33;100.00
9235;BME280;4652;42.716;23.218;2022-11-20T12:27:39;94199.13;;;13.33;100.00
9235;BME280;4652;42.716;23.218;2022-11-20T12:34:44;94178.59;;;13.32;100.00
9235;BME280;4652;42.716;23.218;2022-11-20T12:57:50;94131.59;;;13.92;100.00
9235;BME280;4652;42.716;23.218;2022-11-20T13:04:59;94158.34;;;13.93;100.00
9235;BME280;4652;42.716;23.218;2022-11-20T13:11:47;94135.56;;;13.57;100.00
9235;BME280;4652;42.716;23.218;2022-11-20T13:18:38;94172.91;;;13.80;100.00
9235;BME280;4652;42.716;23.218;2022-11-20T13:25:24;94201.84;;;13.88;100.00
9235;BME280;4652;42.716;23.218;2022-11-20T13:32:12;94193.56;;;13.85;100.00
9235;BME280;4652;42.716;23.218;2022-11-20T13:38:58;94213.53;;;13.72;100.00
9235;BME280;4652;42.716;23.218;2022-11-20T13:45:41;94216.41;;;13.67;100.00
9235;BME280;4652;42.716;23.218;2022-11-20T13:52:43;94237.53;;;13.73;100.00
9235;BME280;4652;42.716;23.218;2022-11-20T13:59:43;94213.06;;;13.70;100.00
9235;BME280;4652;42.716;23.218;2022-11-20T14:35:27;94060.91;;;12.46;100.00
9235;BME280;4652;42.716;23.218;2022-11-20T16:16:01;94348.22;;;12.36;100.00
9235;BME280;4652;42.716;23.218;2022-11-20T16:22:46;94332.91;;;12.54;100.00
9235;BME280;4652;42.716;23.218;2022-11-20T16:29:28;94355.81;;;12.25;100.00
9235;BME280;4652;42.716;23.218;2022-11-20T16:36:13;94285.75;;;11.81;100.00
9235;BME280;4652;42.716;23.218;2022-11-20T16:42:55;94316.50;;;12.11;100.00
9235;BME280;4652;42.716;23.218;2022-11-20T16:49:38;94340.00;;;12.10;100.00
9235;BME280;4652;42.716;23.218;2022-11-20T16:56:22;94303.44;;;11.96;100.00
9235;BME280;4652;42.716;23.218;2022-11-20T17:03:05;94330.84;;;11.67;100.00
9235;BME280;4652;42.716;23.218;2022-11-20T17:09:47;94306.19;;;11.60;100.00
9235;BME280;4652;42.716;23.218;2022-11-20T17:16:30;94326.72;;;11.47;100.00
9235;BME280;4652;42.716;23.218;2022-11-20T17:23:13;94282.06;;;11.33;100.00
9235;BME280;4652;42.716;23.218;2022-11-20T17:29:55;94303.94;;;11.31;100.00
9235;BME280;4652;42.716;23.218;2022-11-20T17:36:40;94274.09;;;11.05;100.00
9235;BME280;4652;42.716;23.218;2022-11-20T17:43:24;94276.06;;;11.13;100.00
9235;BME280;4652;42.716;23.218;2022-11-20T17:50:07;94283.91;;;11.01;100.00
9235;BME280;4652;42.716;23.218;2022-11-20T17:56:50;94250.16;;;11.04;100.00
9235;BME280;4652;42.716;23.218;2022-11-20T18:03:50;94219.00;;;11.11;100.00
9235;BME280;4652;42.716;23.218;2022-11-20T18:10:32;94216.66;;;10.96;100.00
9235;BME280;4652;42.716;23.218;2022-11-20T18:17:16;94207.34;;;10.80;100.00
9235;BME280;4652;42.716;23.218;2022-11-20T18:23:58;94205.09;;;10.96;100.00
9235;BME280;4652;42.716;23.218;2022-11-20T18:30:40;94211.84;;;10.85;100.00
9235;BME280;4652;42.716;23.218;2022-11-20T18:37:24;94209.50;;;10.92;100.00
9235;BME280;4652;42.716;23.218;2022-11-20T18:44:12;94194.38;;;11.04;100.00
9235;BME280;4652;42.716;23.218;2022-11-20T18:51:11;94177.22;;;11.00;100.00
9235;BME280;4652;42.716;23.218;2022-11-20T18:57:57;94160.47;;;10.81;100.00
9235;BME280;4652;42.716;23.218;2022-11-20T19:04:39;94170.81;;;10.88;100.00
9235;BME280;4652;42.716;23.218;2022-11-20T19:11:21;94166.94;;;11.02;100.00
9235;BME280;4652;42.716;23.218;2022-11-20T19:18:05;94084.59;;;10.57;100.00
9235;BME280;4652;42.716;23.218;2022-11-20T19:24:47;94104.91;;;10.85;100.00
9235;BME280;4652;42.716;23.218;2022-11-20T19:31:30;94124.34;;;11.04;100.00
9235;BME280;4652;42.716;23.218;2022-11-20T19:38:16;94035.28;;;10.48;100.00
9235;BME280;4652;42.716;23.218;2022-11-20T19:44:58;94122.97;;;11.15;100.00
9235;BME280;4652;42.716;23.218;2022-11-20T19:51:45;94105.69;;;11.16;100.00
9235;BME280;4652;42.716;23.218;2022-11-20T19:58:32;94086.56;;;10.96;100.00
9235;BME280;4652;42.716;23.218;2022-11-20T20:08:08;94037.38;;;10.82;100.00
9235;BME280;4652;42.716;23.218;2022-11-20T20:14:51;94072.56;;;11.16;100.00
9235;BME280;4652;42.716;23.218;2022-11-20T20:21:34;94080.53;;;11.30;100.00
9235;BME280;4652;42.716;23.218;2022-11-20T20:28:18;94075.88;;;11.13;100.00
9235;BME280;4652;42.716;23.218;2022-11-20T20:35:00;94091.75;;;11.14;100.00
9235;BME280;4652;42.716;23.218;2022-11-20T20:41:42;94077.50;;;11.23;100.00
9235;BME280;4652;42.716;23.218;2022-11-20T20:48:26;94060.84;;;11.20;100.00
9235;BME280;4652;42.716;23.218;2022-11-20T20:55:09;94069.75;;;11.30;100.00
9235;BME280;4652;42.716;23.218;2022-11-20T21:01:51;94081.47;;;11.25;100.00
9235;BME280;4652;42.716;23.218;2022-11-20T21:08:35;94049.09;;;11.16;100.00
9235;BME280;4652;42.716;23.218;2022-11-20T21:15:17;93991.03;;;10.93;100.00
9235;BME280;4652;42.716;23.218;2022-11-20T21:21:59;94021.00;;;11.00;100.00
9235;BME280;4652;42.716;23.218;2022-11-20T21:28:44;94019.91;;;11.01;100.00
9235;BME280;4652;42.716;23.218;2022-11-20T21:35:26;94026.25;;;11.05;100.00
9235;BME280;4652;42.716;23.218;2022-11-20T21:42:09;93993.72;;;10.93;100.00
9235;BME280;4652;42.716;23.218;2022-11-20T21:48:52;93958.06;;;10.96;100.00
9235;BME280;4652;42.716;23.218;2022-11-20T21:55:35;93945.03;;;10.81;100.00
9235;BME280;4652;42.716;23.218;2022-11-20T22:02:17;93934.28;;;10.90;100.00
9235;BME280;4652;42.716;23.218;2022-11-20T22:09:00;93912.91;;;10.93;100.00
9235;BME280;4652;42.716;23.218;2022-11-20T22:15:43;93896.44;;;11.03;100.00
9235;BME280;4652;42.716;23.218;2022-11-20T22:22:25;93872.84;;;11.00;100.00
9235;BME280;4652;42.716;23.218;2022-11-20T22:29:12;93881.66;;;10.75;100.00
9235;BME280;4652;42.716;23.218;2022-11-20T22:36:02;93846.47;;;10.63;100.00
9235;BME280;4652;42.716;23.218;2022-11-20T22:42:44;93842.69;;;10.73;100.00
9235;BME280;4652;42.716;23.218;2022-11-20T22:49:28;93818.94;;;10.92;100.00
9235;BME280;4652;42.716;23.218;2022-11-20T22:56:11;93747.34;;;10.82;100.00
9235;BME280;4652;42.716;23.218;2022-11-20T23:02:54;93750.19;;;11.11;100.00
9235;BME280;4652;42.716;23.218;2022-11-20T23:09:37;93736.56;;;11.16;100.00
9235;BME280;4652;42.716;23.218;2022-11-20T23:16:20;93702.81;;;11.10;100.00
9235;BME280;4652;42.716;23.218;2022-11-20T23:23:02;93675.75;;;10.81;100.00
9235;BME280;4652;42.716;23.218;2022-11-20T23:29:46;93670.03;;;10.91;100.00
9235;BME280;4652;42.716;23.218;2022-11-20T23:36:29;93647.72;;;10.74;100.00
9235;BME280;4652;42.716;23.218;2022-11-20T23:43:11;93631.72;;;10.77;100.00
9235;BME280;4652;42.716;23.218;2022-11-20T23:49:57;93653.91;;;10.74;100.00
9235;BME280;4652;42.716;23.218;2022-11-20T23:56:40;93627.13;;;10.60;100.00
